createdAt,value
2022-11-28T00:01:52.553Z,32.60
2022-11-28T00:04:21.625Z,32.30
2022-11-28T00:06:56.990Z,39.90
2022-11-28T00:09:26.199Z,33.78
2022-11-28T00:11:56.072Z,32.58
2022-11-28T00:14:27.247Z,31.25
2022-11-28T00:17:00.209Z,32.40
2022-11-28T00:19:29.708Z,33.55
2022-11-28T00:21:58.734Z,33.08
2022-11-28T00:24:29.259Z,33.45
2022-11-28T00:27:01.451Z,32.42
2022-11-28T00:29:29.365Z,32.60
2022-11-28T00:31:59.007Z,32.05
2022-11-28T00:34:26.841Z,32.65
2022-11-28T00:36:56.659Z,33.25
2022-11-28T00:39:26.475Z,33.35
2022-11-28T00:41:57.247Z,34.53
2022-11-28T00:44:26.704Z,34.83
2022-11-28T00:46:53.866Z,35.42
2022-11-28T00:49:24.971Z,36.47
2022-11-28T00:51:53.300Z,37.70
2022-11-28T00:54:23.970Z,38.22
2022-11-28T00:56:56.632Z,38.55
2022-11-28T00:59:29.634Z,29.67
2022-11-28T01:01:58.575Z,37.83
2022-11-28T01:04:28.223Z,36.67
2022-11-28T01:07:01.059Z,37.05
2022-11-28T01:09:32.927Z,37.92
2022-11-28T01:12:03.275Z,38.55
2022-11-28T01:14:32.532Z,39.13
2022-11-28T01:17:03.338Z,38.95
2022-11-28T01:19:33.989Z,38.67
2022-11-28T01:22:01.066Z,38.67
2022-11-28T01:24:33.761Z,38.15
2022-11-28T01:27:07.424Z,39.10
2022-11-28T01:29:43.803Z,40.00
2022-11-28T01:32:11.658Z,41.50
2022-11-28T01:34:43.326Z,39.63
2022-11-28T01:37:13.918Z,39.85
2022-11-28T01:39:43.470Z,43.35
2022-11-28T01:42:24.878Z,42.50
2022-11-28T01:45:29.036Z,39.30
2022-11-28T01:48:02.163Z,38.92
2022-11-28T01:50:33.103Z,38.80
2022-11-28T01:53:04.738Z,40.63
2022-11-28T01:55:37.993Z,38.15
2022-11-28T01:58:08.662Z,42.00
2022-11-28T02:00:36.063Z,39.38
2022-11-28T02:03:21.090Z,36.20
2022-11-28T02:05:50.356Z,35.80
2022-11-28T02:08:21.131Z,36.85
2022-11-28T02:11:19.348Z,35.30
2022-11-28T02:14:12.970Z,34.90
2022-11-28T02:17:14.417Z,35.40
2022-11-28T02:20:40.611Z,35.55
2022-11-28T02:23:38.793Z,36.13
2022-11-28T02:26:48.940Z,38.33
2022-11-28T02:29:40.898Z,37.35
2022-11-28T02:32:47.602Z,36.65
2022-11-28T02:35:44.806Z,34.03
2022-11-28T02:38:36.910Z,33.25
2022-11-28T02:41:41.111Z,31.83
2022-11-28T02:44:47.040Z,35.20
2022-11-28T02:47:18.224Z,33.80
2022-11-28T02:50:18.283Z,35.33
2022-11-28T02:53:07.742Z,35.92
2022-11-28T02:55:44.344Z,35.55
2022-11-28T02:58:16.725Z,40.40
2022-11-28T03:00:47.424Z,38.05
2022-11-28T03:03:47.198Z,36.58
2022-11-28T03:06:47.083Z,35.10
2022-11-28T03:09:37.953Z,34.65
2022-11-28T03:12:51.086Z,34.22
2022-11-28T03:15:33.273Z,34.28
2022-11-28T03:18:55.784Z,33.70
2022-11-28T03:21:37.196Z,32.45
2022-11-28T03:27:21.356Z,23.77
2022-11-28T03:29:57.793Z,29.67
2022-11-28T03:32:42.947Z,29.85
2022-11-28T03:35:22.066Z,22.85
2022-11-28T03:37:57.705Z,30.10
2022-11-28T03:40:38.159Z,28.65
2022-11-28T03:43:21.276Z,29.23
2022-11-28T03:45:56.139Z,29.23
2022-11-28T03:48:32.741Z,29.67
2022-11-28T03:51:47.442Z,29.15
2022-11-28T03:54:57.579Z,28.77
2022-11-28T03:57:40.505Z,28.45
2022-11-28T04:00:16.897Z,29.52
2022-11-28T04:03:25.696Z,29.67
2022-11-28T04:06:05.371Z,30.20
2022-11-28T04:08:46.073Z,29.02
2022-11-28T04:11:54.466Z,28.77
2022-11-28T04:14:44.067Z,30.15
2022-11-28T04:17:34.449Z,29.45
2022-11-28T04:20:14.868Z,28.17
2022-11-28T04:22:55.552Z,29.50
2022-11-28T04:25:29.768Z,29.63
2022-11-28T04:28:11.385Z,31.30
2022-11-28T04:30:41.143Z,28.35
2022-11-28T04:33:16.117Z,30.27
2022-11-28T04:35:59.094Z,30.77
2022-11-28T04:38:32.925Z,23.90
2022-11-28T04:41:08.312Z,29.80
2022-11-28T04:43:47.460Z,29.20
2022-11-28T04:46:26.178Z,29.95
2022-11-28T04:48:53.765Z,28.77
2022-11-28T04:51:56.852Z,29.02
2022-11-28T04:54:57.613Z,29.25
2022-11-28T04:57:45.830Z,30.20
2022-11-28T05:00:20.511Z,31.35
2022-11-28T05:02:55.907Z,31.45
2022-11-28T05:05:26.698Z,34.55
2022-11-28T05:07:58.440Z,33.13
2022-11-28T05:10:29.201Z,33.53
2022-11-28T05:13:02.004Z,31.90
2022-11-28T05:17:59.706Z,30.55
2022-11-28T05:20:32.505Z,29.17
2022-11-28T05:23:00.557Z,30.20
2022-11-28T05:25:34.838Z,30.10
2022-11-28T05:28:04.429Z,30.92
2022-11-28T05:30:33.879Z,29.85
2022-11-28T05:33:03.167Z,27.00
2022-11-28T05:35:32.889Z,28.75
2022-11-28T05:38:03.392Z,29.70
2022-11-28T05:40:36.371Z,29.23
2022-11-28T05:43:03.568Z,29.13
2022-11-28T05:45:34.752Z,27.63
2022-11-28T05:48:03.659Z,26.58
2022-11-28T05:50:35.754Z,28.45
2022-11-28T05:53:12.752Z,27.35
2022-11-28T05:55:42.216Z,25.65
2022-11-28T05:58:11.604Z,27.58
2022-11-28T06:00:40.025Z,28.48
2022-11-28T06:03:11.974Z,26.70
2022-11-28T06:05:43.956Z,27.13
2022-11-28T06:08:13.174Z,26.23
2022-11-28T06:10:42.033Z,25.73
2022-11-28T06:13:12.489Z,25.45
2022-11-28T06:15:48.636Z,24.10
2022-11-28T06:18:19.809Z,24.15
2022-11-28T06:20:52.643Z,24.30
2022-11-28T06:23:23.012Z,24.17
2022-11-28T06:25:50.692Z,26.13
2022-11-28T06:28:21.244Z,23.00
2022-11-28T06:30:48.713Z,23.50
2022-11-28T06:33:17.854Z,23.42
2022-11-28T06:35:45.376Z,23.15
2022-11-28T06:38:14.401Z,21.88
2022-11-28T06:40:49.335Z,24.70
2022-11-28T06:43:24.180Z,23.50
2022-11-28T06:45:55.157Z,23.98
2022-11-28T06:48:29.255Z,23.70
2022-11-28T06:51:07.580Z,22.83
2022-11-28T06:53:41.384Z,23.23
2022-11-28T06:56:16.099Z,23.05
2022-11-28T06:58:46.944Z,21.70
2022-11-28T07:01:22.620Z,24.15
2022-11-28T07:03:51.206Z,23.80
2022-11-28T07:06:24.838Z,27.15
2022-11-28T07:08:56.261Z,25.27
2022-11-28T07:11:28.585Z,25.33
2022-11-28T07:13:58.667Z,22.15
2022-11-28T07:16:35.315Z,21.27
2022-11-28T07:19:03.551Z,22.35
2022-11-28T07:21:34.790Z,23.08
2022-11-28T07:24:06.437Z,22.40
2022-11-28T07:26:41.067Z,20.75
2022-11-28T07:29:14.314Z,24.80
2022-11-28T07:31:44.563Z,23.17
2022-11-28T07:34:16.638Z,19.55
2022-11-28T07:36:46.802Z,18.50
2022-11-28T07:39:18.218Z,18.83
2022-11-28T07:41:47.145Z,20.92
2022-11-28T07:44:19.579Z,19.95
2022-11-28T07:46:52.562Z,18.58
2022-11-28T07:49:22.669Z,17.90
2022-11-28T07:51:52.564Z,18.75
2022-11-28T07:54:24.223Z,19.65
2022-11-28T07:59:42.507Z,19.55
2022-11-28T08:02:16.461Z,19.63
2022-11-28T08:04:55.249Z,18.33
2022-11-28T08:07:26.535Z,18.63
2022-11-28T08:09:55.353Z,19.23
2022-11-28T08:12:26.163Z,17.60
2022-11-28T08:14:56.159Z,19.08
2022-11-28T08:17:26.155Z,20.27
2022-11-28T08:19:53.527Z,17.30
2022-11-28T08:22:28.259Z,19.25
2022-11-28T08:25:01.218Z,22.17
2022-11-28T08:27:37.894Z,19.88
2022-11-28T08:30:10.482Z,19.25
2022-11-28T08:32:42.257Z,14.20
2022-11-28T08:35:12.351Z,18.88
2022-11-28T08:37:44.301Z,18.20
2022-11-28T08:40:17.534Z,18.88
2022-11-28T08:42:45.670Z,18.90
2022-11-28T08:45:19.203Z,19.77
2022-11-28T08:47:49.325Z,20.73
2022-11-28T08:50:18.878Z,19.48
2022-11-28T08:52:50.555Z,18.80
2022-11-28T08:55:31.730Z,18.70
2022-11-28T08:58:04.878Z,17.65
2022-11-28T09:00:37.329Z,19.58
2022-11-28T09:03:09.931Z,22.95
2022-11-28T09:05:37.969Z,24.15
2022-11-28T09:08:11.642Z,27.25
2022-11-28T09:10:46.619Z,23.48
2022-11-28T09:13:18.256Z,24.98
2022-11-28T09:15:50.060Z,24.10
2022-11-28T09:18:23.349Z,24.50
2022-11-28T09:21:11.879Z,19.83
2022-11-28T09:23:43.601Z,36.80
2022-11-28T09:26:13.760Z,21.98
2022-11-28T09:28:41.904Z,18.85
2022-11-28T09:31:10.751Z,19.60
2022-11-28T09:33:42.635Z,19.75
2022-11-28T09:36:18.082Z,21.17
2022-11-28T09:38:51.625Z,20.33
2022-11-28T09:41:41.569Z,16.30
2022-11-28T09:44:34.892Z,22.23
2022-11-28T09:47:11.680Z,22.02
2022-11-28T09:49:56.102Z,22.25
2022-11-28T09:52:47.519Z,23.00
2022-11-28T09:55:33.112Z,18.98
2022-11-28T09:58:26.721Z,23.38
2022-11-28T10:01:38.033Z,23.70
2022-11-28T10:04:20.470Z,23.95
2022-11-28T10:07:18.267Z,18.80
2022-11-28T10:10:15.915Z,21.63
2022-11-28T10:13:59.908Z,26.23
2022-11-28T10:16:41.974Z,23.65
2022-11-28T10:19:55.361Z,57.30
2022-11-28T10:22:32.614Z,26.40
2022-11-28T10:25:23.500Z,28.08
2022-11-28T10:27:53.114Z,31.60
2022-11-28T10:30:34.408Z,36.00
2022-11-28T10:33:20.123Z,19.73
2022-11-28T10:36:01.315Z,19.00
2022-11-28T10:38:45.046Z,23.27
2022-11-28T10:41:34.978Z,20.38
2022-11-28T10:44:26.341Z,18.75
2022-11-28T10:47:08.053Z,18.67
2022-11-28T10:50:04.243Z,22.75
2022-11-28T10:53:19.216Z,21.88
2022-11-28T10:58:58.265Z,24.30
2022-11-28T11:01:39.531Z,23.40
2022-11-28T11:04:20.207Z,17.02
2022-11-28T11:07:29.544Z,16.08
2022-11-28T11:10:28.175Z,16.55
2022-11-28T11:13:27.937Z,16.77
2022-11-28T11:16:15.151Z,21.77
2022-11-28T11:18:53.734Z,22.65
2022-11-28T11:21:31.999Z,24.00
2022-11-28T11:24:33.468Z,24.25
2022-11-28T11:27:17.694Z,22.88
2022-11-28T11:29:46.621Z,15.02
2022-11-28T11:32:33.064Z,18.52
2022-11-28T11:35:04.619Z,17.63
2022-11-28T11:37:36.452Z,17.23
2022-11-28T11:40:36.185Z,18.35
2022-11-28T11:43:03.984Z,15.52
2022-11-28T11:45:38.636Z,15.70
2022-11-28T11:48:08.491Z,14.05
2022-11-28T11:50:39.659Z,15.45
2022-11-28T11:53:21.145Z,13.93
2022-11-28T11:56:01.401Z,14.63
2022-11-28T11:58:47.426Z,16.52
2022-11-28T12:04:37.062Z,12.70
2022-11-28T12:07:04.806Z,19.25
2022-11-28T12:09:55.131Z,17.10
2022-11-28T12:12:35.820Z,14.15
2022-11-28T12:15:07.055Z,15.23
2022-11-28T12:18:08.018Z,12.80
2022-11-28T12:21:08.739Z,12.43
2022-11-28T12:23:54.548Z,13.55
2022-11-28T12:26:44.572Z,13.02
2022-11-28T12:30:01.128Z,13.57
2022-11-28T12:32:53.982Z,15.43
2022-11-28T12:35:40.091Z,14.40
2022-11-28T12:38:32.110Z,13.77
2022-11-28T12:41:11.440Z,17.70
2022-11-28T12:44:11.851Z,21.23
2022-11-28T12:46:51.394Z,16.63
2022-11-28T12:49:37.615Z,15.25
2022-11-28T12:52:35.978Z,15.18
2022-11-28T12:55:40.414Z,11.60
2022-11-28T12:58:36.474Z,11.43
2022-11-28T13:01:36.794Z,12.02
2022-11-28T13:04:41.851Z,11.70
2022-11-28T13:07:35.190Z,11.75
2022-11-28T13:10:38.994Z,22.20
2022-11-28T13:13:29.851Z,13.90
2022-11-28T13:16:09.273Z,14.52
2022-11-28T13:18:48.320Z,17.60
2022-11-28T13:21:34.559Z,14.13
2022-11-28T13:24:51.520Z,16.08
2022-11-28T13:28:11.640Z,14.75
2022-11-28T13:30:58.364Z,14.20
2022-11-28T13:34:08.541Z,13.65
2022-11-28T13:40:37.722Z,15.45
2022-11-28T13:43:47.483Z,16.48
2022-11-28T13:46:18.894Z,20.08
2022-11-28T13:51:43.331Z,18.65
2022-11-28T13:54:32.337Z,22.55
2022-11-28T13:57:25.330Z,20.10
2022-11-28T14:00:25.387Z,20.08
2022-11-28T14:02:58.306Z,21.33
2022-11-28T14:05:41.589Z,25.85
2022-11-28T14:08:46.167Z,41.75
2022-11-28T14:11:43.212Z,26.83
2022-11-28T14:14:32.594Z,21.40
2022-11-28T14:17:29.587Z,21.77
2022-11-28T14:20:29.197Z,19.45
2022-11-28T14:23:23.207Z,23.75
2022-11-28T14:25:54.866Z,17.92
2022-11-28T14:28:47.856Z,17.42
2022-11-28T14:31:40.314Z,16.52
2022-11-28T14:34:49.881Z,16.05
2022-11-28T14:37:39.654Z,15.63
2022-11-28T14:40:59.902Z,16.33
2022-11-28T14:43:44.884Z,15.57
2022-11-28T14:46:30.679Z,17.73
2022-11-28T14:49:12.823Z,27.08
2022-11-28T14:52:09.872Z,21.63
2022-11-28T14:54:48.578Z,17.92
2022-11-28T14:57:22.146Z,17.33
2022-11-28T14:59:53.654Z,16.77
2022-11-28T15:02:57.641Z,18.23
2022-11-28T15:05:46.623Z,18.38
2022-11-28T15:08:32.594Z,20.02
2022-11-28T15:11:22.142Z,33.42
2022-11-28T15:14:05.789Z,27.25
2022-11-28T15:16:36.931Z,20.38
2022-11-28T15:19:18.032Z,16.80
2022-11-28T15:21:51.524Z,16.63
2022-11-28T15:24:38.504Z,15.48
2022-11-28T15:27:27.071Z,14.95
2022-11-28T15:30:01.640Z,12.65
2022-11-28T15:32:33.234Z,14.48
2022-11-28T15:35:11.069Z,14.70
2022-11-28T15:37:50.621Z,14.48
2022-11-28T15:40:22.538Z,13.82
2022-11-28T15:42:55.326Z,14.80
2022-11-28T15:45:36.106Z,13.73
2022-11-28T15:48:09.346Z,13.75
2022-11-28T15:50:37.419Z,14.02
2022-11-28T15:53:22.434Z,14.32
2022-11-28T15:56:15.655Z,13.90
2022-11-28T15:58:47.836Z,12.75
2022-11-28T16:01:30.795Z,13.27
2022-11-28T16:04:17.054Z,12.82
2022-11-28T16:09:35.700Z,15.98
2022-11-28T16:12:07.737Z,14.88
2022-11-28T16:14:37.628Z,15.52
2022-11-28T16:17:23.917Z,14.60
2022-11-28T16:19:55.805Z,15.15
2022-11-28T16:22:37.560Z,14.57
2022-11-28T16:25:37.427Z,15.20
2022-11-28T16:28:08.795Z,15.82
2022-11-28T16:30:44.818Z,17.70
2022-11-28T16:33:46.121Z,15.52
2022-11-28T16:36:45.923Z,21.42
2022-11-28T16:39:18.820Z,19.00
2022-11-28T16:42:09.423Z,15.90
2022-11-28T16:44:39.591Z,14.32
2022-11-28T16:47:22.902Z,13.88
2022-11-28T16:50:14.105Z,14.77
2022-11-28T16:52:55.166Z,14.23
2022-11-28T16:55:32.951Z,14.60
2022-11-28T16:58:11.710Z,16.02
2022-11-28T17:00:56.675Z,14.10
2022-11-28T17:03:53.784Z,13.68
2022-11-28T17:06:40.414Z,15.52
2022-11-28T17:09:14.089Z,14.85
2022-11-28T17:11:53.766Z,15.23
2022-11-28T17:14:24.833Z,14.73
2022-11-28T17:16:52.809Z,15.38
2022-11-28T17:19:30.741Z,14.73
2022-11-28T17:22:08.204Z,17.05
2022-11-28T17:24:40.002Z,23.88
2022-11-28T17:27:15.420Z,23.20
2022-11-28T17:29:44.621Z,25.10
2022-11-28T17:32:16.579Z,20.63
2022-11-28T17:34:46.240Z,18.15
2022-11-28T17:37:14.802Z,28.33
2022-11-28T17:40:04.972Z,19.95
2022-11-28T17:42:33.772Z,38.08
2022-11-28T17:45:04.736Z,25.52
2022-11-28T17:47:35.941Z,20.63
2022-11-28T17:50:05.243Z,18.58
2022-11-28T17:52:37.011Z,21.90
2022-11-28T17:55:10.491Z,17.73
2022-11-28T17:58:00.109Z,23.13
2022-11-28T18:00:31.427Z,21.58
2022-11-28T18:03:01.525Z,21.70
2022-11-28T18:05:31.524Z,20.00
2022-11-28T18:07:59.468Z,19.38
2022-11-28T18:10:28.040Z,19.30
2022-11-28T18:12:57.131Z,19.77
2022-11-28T18:15:27.947Z,18.08
2022-11-28T18:17:57.931Z,18.90
2022-11-28T18:20:31.415Z,19.08
2022-11-28T18:23:02.750Z,17.45
2022-11-28T18:25:32.876Z,17.75
2022-11-28T18:28:03.364Z,19.95
2022-11-28T18:30:33.322Z,18.92
2022-11-28T18:33:06.382Z,21.88
2022-11-28T18:35:38.645Z,20.30
2022-11-28T18:38:13.931Z,21.70
2022-11-28T18:40:51.016Z,21.23
2022-11-28T18:43:19.313Z,20.97
2022-11-28T18:45:51.491Z,19.65
2022-11-28T18:48:26.165Z,19.63
2022-11-28T18:50:56.916Z,18.65
2022-11-28T18:53:28.936Z,20.48
2022-11-28T18:56:04.469Z,19.13
2022-11-28T18:58:38.821Z,17.92
2022-11-28T19:03:54.343Z,19.83
2022-11-28T19:06:23.112Z,17.45
2022-11-28T19:08:58.404Z,18.65
2022-11-28T19:11:29.519Z,19.60
2022-11-28T19:13:59.323Z,19.15
2022-11-28T19:16:35.452Z,20.05
2022-11-28T19:19:05.820Z,18.67
2022-11-28T19:21:39.001Z,19.88
2022-11-28T19:24:09.269Z,19.45
2022-11-28T19:26:39.975Z,19.33
2022-11-28T19:29:10.789Z,20.38
2022-11-28T19:31:46.400Z,26.15
2022-11-28T19:34:19.010Z,37.65
2022-11-28T19:36:53.405Z,24.45
2022-11-28T19:39:23.812Z,21.45
2022-11-28T19:41:56.026Z,19.48
2022-11-28T19:44:27.071Z,22.13
2022-11-28T19:46:56.870Z,21.77
2022-11-28T19:49:27.356Z,19.08
2022-11-28T19:52:02.762Z,18.92
2022-11-28T19:54:33.200Z,19.55
2022-11-28T19:57:03.026Z,20.60
2022-11-28T19:59:34.174Z,19.75
2022-11-28T20:02:04.042Z,23.60
2022-11-28T20:04:33.867Z,25.58
2022-11-28T20:07:04.685Z,20.08
2022-11-28T20:09:36.304Z,20.70
2022-11-28T20:12:06.805Z,19.38
2022-11-28T20:14:37.159Z,18.85
2022-11-28T20:17:05.639Z,18.52
2022-11-28T20:19:37.917Z,19.52
2022-11-28T20:22:08.683Z,27.52
2022-11-28T20:24:39.947Z,21.65
2022-11-28T20:27:11.872Z,19.58
2022-11-28T20:29:42.642Z,19.08
2022-11-28T20:32:14.179Z,17.92
2022-11-28T20:34:47.371Z,17.92
2022-11-28T20:37:20.282Z,17.23
2022-11-28T20:39:50.919Z,18.80
2022-11-28T20:42:18.102Z,17.05
2022-11-28T20:44:45.495Z,17.55
2022-11-28T20:47:16.596Z,18.25
2022-11-28T20:49:44.520Z,18.75
2022-11-28T20:52:15.286Z,18.20
2022-11-28T20:54:47.554Z,17.80
2022-11-28T20:57:22.830Z,18.55
2022-11-28T21:02:41.600Z,18.25
2022-11-28T21:05:14.813Z,18.52
2022-11-28T21:07:42.079Z,20.52
2022-11-28T21:10:13.447Z,18.25
2022-11-28T21:12:46.950Z,18.27
2022-11-28T21:15:16.647Z,18.65
2022-11-28T21:17:45.346Z,19.45
2022-11-28T21:20:17.096Z,18.73
2022-11-28T21:22:45.030Z,17.80
2022-11-28T21:25:23.223Z,19.35
2022-11-28T21:27:51.597Z,18.42
2022-11-28T21:30:19.671Z,18.50
2022-11-28T21:32:47.622Z,19.02
2022-11-28T21:35:20.073Z,24.70
2022-11-28T21:37:47.216Z,25.00
2022-11-28T21:40:18.047Z,20.40
2022-11-28T21:42:48.103Z,20.02
2022-11-28T21:45:17.006Z,18.65
2022-11-28T21:47:49.763Z,19.92
2022-11-28T21:50:22.175Z,19.77
2022-11-28T21:52:51.865Z,18.90
2022-11-28T21:55:25.032Z,18.42
2022-11-28T21:57:55.364Z,19.70
2022-11-28T22:00:52.001Z,19.92
2022-11-28T22:03:19.419Z,19.63
2022-11-28T22:05:48.889Z,19.83
2022-11-28T22:08:17.676Z,19.55
2022-11-28T22:10:47.689Z,20.73
2022-11-28T22:13:17.300Z,20.75
2022-11-28T22:15:44.805Z,20.00
2022-11-28T22:18:15.029Z,20.42
2022-11-28T22:20:50.247Z,22.27
2022-11-28T22:23:22.547Z,21.40
2022-11-28T22:25:56.083Z,21.40
2022-11-28T22:28:29.080Z,20.25
2022-11-28T22:30:58.931Z,18.65
2022-11-28T22:33:26.603Z,20.77
2022-11-28T22:35:58.198Z,20.42
2022-11-28T22:38:27.781Z,21.88
2022-11-28T22:40:59.410Z,20.73
2022-11-28T22:43:28.299Z,20.20
2022-11-28T22:46:01.867Z,21.00
2022-11-28T22:48:35.647Z,23.42
2022-11-28T22:51:20.097Z,24.13
2022-11-28T22:53:58.684Z,20.83
2022-11-28T22:56:34.264Z,20.17
2022-11-28T22:59:14.034Z,19.98
2022-11-28T23:01:44.604Z,20.05
2022-11-28T23:04:13.654Z,20.70
2022-11-28T23:06:47.188Z,19.70
2022-11-28T23:09:18.542Z,19.98
2022-11-28T23:11:46.861Z,20.13
2022-11-28T23:14:17.703Z,19.48
2022-11-28T23:16:49.625Z,19.52
2022-11-28T23:19:19.751Z,19.77
2022-11-28T23:21:49.567Z,18.98
2022-11-28T23:24:22.968Z,18.80
2022-11-28T23:26:56.781Z,18.10
2022-11-28T23:29:25.692Z,19.00
2022-11-28T23:31:57.291Z,19.70
2022-11-28T23:34:28.977Z,21.00
2022-11-28T23:36:57.589Z,19.35
2022-11-28T23:39:25.624Z,18.77
2022-11-28T23:42:07.978Z,18.13
2022-11-28T23:44:41.522Z,19.77
2022-11-28T23:47:13.461Z,19.58
2022-11-28T23:49:41.555Z,17.10
2022-11-28T23:52:12.421Z,16.52
2022-11-28T23:54:42.371Z,17.77
2022-11-28T23:57:12.410Z,18.55
2022-11-28T23:59:40.812Z,17.30
